createdAt,value
2019-03-27T00:00:45.757Z,6.53
2019-03-27T00:03:14.035Z,6.55
2019-03-27T00:05:42.240Z,6.54
2019-03-27T00:08:10.480Z,6.53
2019-03-27T00:10:38.979Z,6.52
2019-03-27T00:13:08.601Z,6.52
2019-03-27T00:15:36.964Z,6.50
2019-03-27T00:18:05.431Z,6.50
2019-03-27T00:20:33.937Z,6.52
2019-03-27T00:23:03.663Z,6.46
2019-03-27T00:25:31.919Z,6.46
2019-03-27T00:28:01.651Z,6.47
2019-03-27T00:30:29.903Z,6.48
2019-03-27T00:32:58.368Z,6.48
2019-03-27T00:35:28.238Z,6.48
2019-03-27T00:37:56.475Z,6.50
2019-03-27T00:40:24.861Z,6.47
2019-03-27T00:42:53.319Z,6.47
2019-03-27T00:45:26.962Z,6.46
2019-03-27T00:47:51.821Z,6.46
2019-03-27T00:50:20.330Z,6.46
2019-03-27T00:52:48.524Z,6.37
2019-03-27T00:55:17.431Z,6.37
2019-03-27T00:57:45.748Z,6.42
2019-03-27T01:00:28.849Z,6.43
2019-03-27T01:02:59.418Z,6.42
2019-03-27T01:05:27.636Z,6.42
2019-03-27T01:07:55.835Z,6.44
2019-03-27T01:10:24.052Z,6.44
2019-03-27T01:12:52.512Z,6.44
2019-03-27T01:15:20.996Z,6.41
2019-03-27T01:17:49.466Z,6.37
2019-03-27T01:20:17.961Z,6.35
2019-03-27T01:22:46.156Z,6.39
2019-03-27T01:25:16.040Z,6.39
2019-03-27T01:27:44.421Z,6.41
2019-03-27T01:30:12.920Z,6.43
2019-03-27T01:32:41.390Z,6.44
2019-03-27T01:35:11.505Z,6.43
2019-03-27T01:37:39.867Z,6.44
2019-03-27T01:40:08.832Z,6.46
2019-03-27T01:42:37.030Z,6.46
2019-03-27T01:45:09.539Z,6.43
2019-03-27T01:47:39.301Z,6.43
2019-03-27T01:50:07.884Z,6.45
2019-03-27T01:52:36.405Z,6.49
2019-03-27T01:55:07.227Z,6.48
2019-03-27T01:57:36.634Z,6.46
2019-03-27T02:00:06.722Z,6.49
2019-03-27T02:02:34.983Z,6.49
2019-03-27T02:05:04.088Z,6.50
2019-03-27T02:07:32.404Z,6.48
2019-03-27T02:10:00.898Z,6.49
2019-03-27T02:12:29.440Z,6.48
2019-03-27T02:14:57.849Z,6.48
2019-03-27T02:17:26.049Z,6.48
2019-03-27T02:19:54.553Z,6.44
2019-03-27T02:22:22.794Z,6.42
2019-03-27T02:24:51.279Z,6.41
2019-03-27T02:27:22.355Z,6.39
2019-03-27T02:29:51.955Z,6.41
2019-03-27T02:32:21.015Z,6.37
2019-03-27T02:34:50.316Z,6.39
2019-03-27T02:37:18.791Z,6.42
2019-03-27T02:39:48.301Z,6.43
2019-03-27T02:42:18.393Z,6.44
2019-03-27T02:44:46.824Z,6.37
2019-03-27T02:47:15.309Z,6.37
2019-03-27T02:49:43.782Z,6.43
2019-03-27T02:52:12.259Z,6.42
2019-03-27T02:54:40.722Z,6.40
2019-03-27T02:57:10.381Z,6.41
2019-03-27T02:59:40.185Z,6.41
2019-03-27T03:02:08.742Z,6.40
2019-03-27T03:04:37.207Z,6.42
2019-03-27T03:07:05.702Z,6.35
2019-03-27T03:09:33.907Z,6.35
2019-03-27T03:12:02.155Z,6.41
2019-03-27T03:14:30.628Z,6.36
2019-03-27T03:16:59.136Z,6.36
2019-03-27T03:19:27.574Z,6.42
2019-03-27T03:21:57.446Z,6.41
2019-03-27T03:24:27.277Z,6.43
2019-03-27T03:26:56.474Z,6.44
2019-03-27T03:29:24.675Z,6.43
2019-03-27T03:31:52.880Z,6.44
2019-03-27T03:34:21.105Z,6.42
2019-03-27T03:36:49.730Z,6.42
2019-03-27T03:39:19.476Z,6.39
2019-03-27T03:41:48.017Z,6.38
2019-03-27T03:44:16.228Z,6.38
2019-03-27T03:46:58.814Z,6.37
2019-03-27T03:49:15.262Z,6.35
2019-03-27T03:51:43.492Z,6.35
2019-03-27T03:54:11.953Z,6.33
2019-03-27T03:56:41.118Z,6.33
2019-03-27T03:59:11.457Z,6.35
2019-03-27T04:01:41.003Z,6.36
2019-03-27T04:04:09.711Z,6.34
2019-03-27T04:06:37.952Z,6.36
2019-03-27T04:09:07.152Z,6.36
2019-03-27T04:11:37.205Z,6.33
2019-03-27T04:14:05.435Z,6.35
2019-03-27T04:16:36.921Z,6.33
2019-03-27T04:19:05.459Z,6.32
2019-03-27T04:21:33.973Z,6.35
2019-03-27T04:24:02.248Z,6.37
2019-03-27T04:26:33.556Z,6.38
2019-03-27T04:29:02.064Z,6.38
2019-03-27T04:31:30.445Z,6.39
2019-03-27T04:33:58.654Z,6.37
2019-03-27T04:36:28.365Z,6.36
2019-03-27T04:38:58.223Z,6.32
2019-03-27T04:41:26.418Z,6.32
2019-03-27T04:43:54.897Z,6.37
2019-03-27T04:46:23.111Z,6.37
2019-03-27T04:48:51.396Z,6.38
2019-03-27T04:51:19.859Z,6.38
2019-03-27T04:53:48.307Z,6.38
2019-03-27T04:56:16.797Z,6.38
2019-03-27T04:58:45.272Z,6.40
2019-03-27T05:01:13.756Z,6.39
2019-03-27T05:03:41.952Z,6.40
2019-03-27T05:06:10.162Z,6.39
2019-03-27T05:08:38.359Z,6.40
2019-03-27T05:11:06.571Z,6.40
2019-03-27T05:13:39.018Z,6.42
2019-03-27T05:16:07.225Z,6.42
2019-03-27T05:18:35.427Z,6.43
2019-03-27T05:21:03.650Z,6.43
2019-03-27T05:23:31.850Z,6.41
2019-03-27T05:26:00.048Z,6.46
2019-03-27T05:28:28.260Z,6.47
2019-03-27T05:30:56.462Z,6.43
2019-03-27T05:33:24.673Z,6.46
2019-03-27T05:35:52.868Z,6.46
2019-03-27T05:38:21.093Z,6.46
2019-03-27T05:40:50.918Z,6.48
2019-03-27T05:43:19.125Z,6.50
2019-03-27T05:45:47.570Z,6.52
2019-03-27T05:48:15.789Z,6.54
2019-03-27T05:50:43.988Z,6.52
2019-03-27T05:53:12.188Z,6.52
2019-03-27T05:55:40.398Z,6.57
2019-03-27T05:58:08.597Z,6.59
2019-03-27T06:00:36.808Z,6.61
2019-03-27T06:03:05.008Z,6.64
2019-03-27T06:05:33.301Z,6.70
2019-03-27T06:08:01.497Z,6.70
2019-03-27T06:10:29.705Z,6.70
2019-03-27T06:12:57.909Z,6.72
2019-03-27T06:15:25.941Z,6.74
2019-03-27T06:17:54.141Z,6.78
2019-03-27T06:20:22.361Z,6.78
2019-03-27T06:22:50.561Z,6.82
2019-03-27T06:25:18.782Z,6.84
2019-03-27T06:27:47.043Z,6.90
2019-03-27T06:30:15.247Z,6.90
2019-03-27T06:32:43.441Z,6.95
2019-03-27T06:35:12.529Z,6.97
2019-03-27T06:37:40.730Z,6.97
2019-03-27T06:40:08.933Z,6.96
2019-03-27T06:42:38.307Z,6.98
2019-03-27T06:45:06.585Z,7.01
2019-03-27T06:47:34.775Z,7.02
2019-03-27T06:50:02.981Z,7.02
2019-03-27T06:52:31.166Z,7.10
2019-03-27T06:55:00.101Z,7.11
2019-03-27T06:57:28.289Z,7.13
2019-03-27T06:59:56.499Z,7.12
2019-03-27T07:02:28.610Z,7.16
2019-03-27T07:04:55.297Z,7.22
2019-03-27T07:07:25.366Z,7.23
2019-03-27T07:09:53.582Z,7.25
2019-03-27T07:12:21.793Z,7.27
2019-03-27T07:14:49.988Z,7.37
2019-03-27T07:17:18.274Z,7.41
2019-03-27T07:19:46.473Z,7.43
2019-03-27T07:22:14.688Z,7.42
2019-03-27T07:24:42.880Z,7.39
2019-03-27T07:27:11.082Z,7.42
2019-03-27T07:29:39.282Z,7.50
2019-03-27T07:32:07.497Z,7.49
2019-03-27T07:34:35.697Z,7.42
2019-03-27T07:37:03.904Z,7.42
2019-03-27T07:39:32.271Z,7.35
2019-03-27T07:42:00.489Z,7.30
2019-03-27T07:44:28.687Z,7.30
2019-03-27T07:46:56.887Z,7.22
2019-03-27T07:49:25.093Z,7.20
2019-03-27T07:51:53.305Z,7.20
2019-03-27T07:54:21.504Z,7.23
2019-03-27T07:56:49.955Z,7.25
2019-03-27T07:59:18.167Z,7.29
2019-03-27T08:01:46.366Z,7.33
2019-03-27T08:04:15.742Z,7.38
2019-03-27T08:06:43.941Z,7.44
2019-03-27T08:09:12.150Z,7.50
2019-03-27T08:11:40.562Z,7.72
2019-03-27T08:14:08.740Z,7.72
2019-03-27T08:16:36.946Z,7.76
2019-03-27T08:19:07.783Z,7.75
2019-03-27T08:21:35.063Z,7.79
2019-03-27T08:24:03.281Z,7.83
2019-03-27T08:26:31.478Z,7.85
2019-03-27T08:29:00.857Z,7.94
2019-03-27T08:31:29.052Z,7.85
2019-03-27T08:33:57.247Z,7.85
2019-03-27T08:36:25.924Z,7.81
2019-03-27T08:38:54.370Z,7.71
2019-03-27T08:41:22.821Z,7.67
2019-03-27T08:43:53.159Z,7.63
2019-03-27T08:46:21.373Z,7.69
2019-03-27T08:48:49.655Z,7.77
2019-03-27T08:51:18.819Z,7.88
2019-03-27T08:53:47.013Z,7.97
2019-03-27T08:56:15.219Z,7.97
2019-03-27T08:58:43.429Z,8.04
2019-03-27T09:01:11.644Z,8.02
2019-03-27T09:03:39.836Z,8.08
2019-03-27T09:06:08.045Z,8.12
2019-03-27T09:08:36.242Z,8.15
2019-03-27T09:11:04.941Z,8.20
2019-03-27T09:13:33.141Z,8.33
2019-03-27T09:16:01.359Z,8.33
2019-03-27T09:18:29.550Z,8.32
2019-03-27T09:20:57.752Z,8.29
2019-03-27T09:23:25.961Z,8.35
2019-03-27T09:25:54.173Z,8.35
2019-03-27T09:28:22.572Z,8.41
2019-03-27T09:30:50.771Z,8.34
2019-03-27T09:33:18.986Z,8.26
2019-03-27T09:35:47.224Z,8.21
2019-03-27T09:38:16.803Z,8.19
2019-03-27T09:40:45.005Z,8.22
2019-03-27T09:43:13.219Z,8.27
2019-03-27T09:45:41.416Z,8.38
2019-03-27T09:48:09.640Z,8.50
2019-03-27T09:50:37.833Z,8.50
2019-03-27T09:53:06.037Z,8.48
2019-03-27T09:55:34.250Z,8.44
2019-03-27T09:58:03.810Z,8.55
2019-03-27T10:00:50.356Z,8.54
2019-03-27T10:03:19.021Z,8.53
2019-03-27T10:05:47.224Z,8.57
2019-03-27T10:08:15.426Z,8.54
2019-03-27T10:10:43.633Z,8.43
2019-03-27T10:13:11.828Z,8.39
2019-03-27T10:15:40.041Z,8.44
2019-03-27T10:18:08.237Z,8.60
2019-03-27T10:20:36.452Z,8.75
2019-03-27T10:23:04.663Z,8.86
2019-03-27T10:25:32.876Z,8.86
2019-03-27T10:28:02.704Z,8.87
2019-03-27T10:30:30.912Z,8.83
2019-03-27T10:32:59.577Z,8.78
2019-03-27T10:35:27.780Z,8.90
2019-03-27T10:37:55.975Z,8.88
2019-03-27T10:40:24.194Z,8.79
2019-03-27T10:42:52.394Z,8.72
2019-03-27T10:45:20.598Z,8.71
2019-03-27T10:47:48.804Z,8.69
2019-03-27T10:50:18.174Z,8.74
2019-03-27T10:52:46.473Z,8.86
2019-03-27T10:55:14.679Z,8.98
2019-03-27T10:57:42.895Z,8.96
2019-03-27T11:00:11.658Z,8.96
2019-03-27T11:02:39.845Z,8.82
2019-03-27T11:05:10.087Z,8.77
2019-03-27T11:07:39.932Z,8.72
2019-03-27T11:10:08.388Z,8.73
2019-03-27T11:12:36.610Z,8.75
2019-03-27T11:15:06.945Z,8.81
2019-03-27T11:17:36.167Z,8.97
2019-03-27T11:20:05.415Z,9.00
2019-03-27T11:22:34.579Z,8.94
2019-03-27T11:25:02.779Z,8.95
2019-03-27T11:27:31.753Z,9.14
2019-03-27T11:30:00.381Z,9.44
2019-03-27T11:32:29.523Z,9.43
2019-03-27T11:34:57.972Z,9.50
2019-03-27T11:37:26.174Z,9.56
2019-03-27T11:39:54.370Z,9.54
2019-03-27T11:42:22.578Z,9.45
2019-03-27T11:44:51.239Z,9.40
2019-03-27T11:47:20.808Z,9.40
2019-03-27T11:49:49.009Z,9.51
2019-03-27T11:52:17.204Z,9.60
2019-03-27T11:54:45.414Z,9.58
2019-03-27T11:57:13.614Z,9.54
2019-03-27T11:59:53.202Z,9.47
2019-03-27T12:02:11.749Z,9.39
2019-03-27T12:04:39.959Z,9.30
2019-03-27T12:07:08.157Z,9.35
2019-03-27T12:09:37.997Z,9.35
2019-03-27T12:12:07.660Z,9.32
2019-03-27T12:14:35.878Z,9.21
2019-03-27T12:17:04.071Z,9.14
2019-03-27T12:19:32.287Z,9.13
2019-03-27T12:22:00.476Z,9.07
2019-03-27T12:24:29.918Z,9.03
2019-03-27T12:26:58.441Z,9.07
2019-03-27T12:29:26.655Z,9.10
2019-03-27T12:31:54.855Z,9.15
2019-03-27T12:34:23.069Z,9.13
2019-03-27T12:36:51.264Z,9.09
2019-03-27T12:39:19.466Z,9.10
2019-03-27T12:41:48.240Z,9.13
2019-03-27T12:44:17.633Z,9.08
2019-03-27T12:46:45.854Z,9.02
2019-03-27T12:49:14.050Z,8.99
2019-03-27T12:51:42.259Z,8.96
2019-03-27T12:54:10.711Z,8.92
2019-03-27T12:56:38.917Z,8.90
2019-03-27T12:59:07.114Z,8.90
2019-03-27T13:01:35.567Z,8.91
2019-03-27T13:04:04.037Z,8.92
2019-03-27T13:06:32.233Z,8.87
2019-03-27T13:09:00.435Z,8.82
2019-03-27T13:11:28.644Z,8.81
2019-03-27T13:13:56.847Z,8.79
2019-03-27T13:16:25.139Z,8.77
2019-03-27T13:18:53.340Z,8.80
2019-03-27T13:21:26.653Z,8.81
2019-03-27T13:23:52.597Z,8.81
2019-03-27T13:26:21.067Z,8.79
2019-03-27T13:28:49.490Z,8.78
2019-03-27T13:31:17.649Z,8.81
2019-03-27T13:33:46.112Z,8.81
2019-03-27T13:36:14.699Z,8.84
2019-03-27T13:38:44.529Z,8.93
2019-03-27T13:41:12.726Z,9.03
2019-03-27T13:43:40.944Z,9.06
2019-03-27T13:46:09.675Z,9.08
2019-03-27T13:48:37.893Z,9.13
2019-03-27T13:51:06.089Z,9.18
2019-03-27T13:53:34.308Z,9.33
2019-03-27T13:56:02.509Z,9.45
2019-03-27T13:58:30.719Z,9.43
2019-03-27T14:00:58.912Z,9.33
2019-03-27T14:03:27.589Z,9.27
2019-03-27T14:05:56.771Z,9.20
2019-03-27T14:08:25.758Z,9.08
2019-03-27T14:10:54.006Z,9.04
2019-03-27T14:13:24.068Z,9.01
2019-03-27T14:15:52.259Z,9.00
2019-03-27T14:18:20.507Z,8.96
2019-03-27T14:20:48.964Z,8.92
2019-03-27T14:23:17.170Z,8.90
2019-03-27T14:25:45.416Z,8.84
2019-03-27T14:28:15.545Z,8.80
2019-03-27T14:30:54.145Z,8.74
2019-03-27T14:33:24.233Z,8.69
2019-03-27T14:35:52.653Z,8.67
2019-03-27T14:38:20.884Z,8.67
2019-03-27T14:40:49.673Z,8.63
2019-03-27T14:43:17.886Z,8.62
2019-03-27T14:45:46.087Z,8.60
2019-03-27T14:48:14.567Z,8.60
2019-03-27T14:50:42.772Z,8.59
2019-03-27T14:53:11.421Z,8.58
2019-03-27T14:55:39.620Z,8.60
2019-03-27T14:58:09.073Z,8.60
2019-03-27T15:00:37.469Z,8.62
2019-03-27T15:03:05.683Z,8.64
2019-03-27T15:05:33.883Z,8.65
2019-03-27T15:08:04.163Z,8.66
2019-03-27T15:10:32.422Z,8.63
2019-03-27T15:13:01.092Z,8.62
2019-03-27T15:15:29.449Z,8.61
2019-03-27T15:17:57.874Z,8.60
2019-03-27T15:20:26.340Z,8.54
2019-03-27T15:22:54.835Z,8.54
2019-03-27T15:25:24.332Z,8.58
2019-03-27T15:27:52.823Z,8.57
2019-03-27T15:30:21.341Z,8.58
2019-03-27T15:32:49.799Z,8.57
2019-03-27T15:35:18.257Z,8.58
2019-03-27T15:37:46.472Z,8.57
2019-03-27T15:40:17.956Z,8.65
2019-03-27T15:42:46.268Z,8.66
2019-03-27T15:45:14.739Z,8.67
2019-03-27T15:47:43.263Z,8.69
2019-03-27T15:50:11.939Z,8.70
2019-03-27T15:52:40.152Z,8.68
2019-03-27T15:55:08.669Z,8.66
2019-03-27T15:57:37.170Z,8.65
2019-03-27T16:00:05.864Z,8.62
2019-03-27T16:02:34.013Z,8.61
2019-03-27T16:05:04.227Z,8.59
2019-03-27T16:07:32.622Z,8.56
2019-03-27T16:10:01.111Z,8.55
2019-03-27T16:12:29.301Z,8.51
2019-03-27T16:14:58.539Z,8.51
2019-03-27T16:17:26.843Z,8.49
2019-03-27T16:19:55.505Z,8.50
2019-03-27T16:22:23.741Z,8.47
2019-03-27T16:24:51.970Z,8.46
2019-03-27T16:27:20.177Z,8.45
2019-03-27T16:29:48.424Z,8.44
2019-03-27T16:32:17.624Z,8.43
2019-03-27T16:34:45.899Z,8.42
2019-03-27T16:37:14.392Z,8.44
2019-03-27T16:39:42.859Z,8.45
2019-03-27T16:42:11.350Z,8.46
2019-03-27T16:44:39.541Z,8.46
2019-03-27T16:47:08.316Z,8.44
2019-03-27T16:49:36.804Z,8.44
2019-03-27T16:52:05.273Z,8.43
2019-03-27T16:54:33.768Z,8.38
2019-03-27T16:57:03.040Z,8.41
2019-03-27T16:59:31.250Z,8.41
2019-03-27T17:01:59.697Z,8.42
2019-03-27T17:04:28.203Z,8.40
2019-03-27T17:06:56.674Z,8.39
2019-03-27T17:09:26.009Z,8.39
2019-03-27T17:11:54.197Z,8.38
2019-03-27T17:14:22.653Z,8.36
2019-03-27T17:16:50.848Z,8.35
2019-03-27T17:19:19.085Z,8.33
2019-03-27T17:21:47.287Z,8.33
2019-03-27T17:24:15.542Z,8.33
2019-03-27T17:26:44.014Z,8.30
2019-03-27T17:29:12.511Z,8.29
2019-03-27T17:31:40.976Z,8.27
2019-03-27T17:34:09.467Z,8.27
2019-03-27T17:36:38.400Z,8.23
2019-03-27T17:39:08.163Z,8.23
2019-03-27T17:41:36.512Z,8.23
2019-03-27T17:44:05.488Z,8.20
2019-03-27T17:46:33.686Z,8.17
2019-03-27T17:49:01.901Z,8.16
2019-03-27T17:51:30.109Z,8.16
2019-03-27T17:53:58.316Z,8.12
2019-03-27T17:56:26.544Z,8.11
2019-03-27T17:58:54.719Z,8.10
2019-03-27T18:01:23.834Z,8.09
2019-03-27T18:03:53.245Z,8.08
2019-03-27T18:06:21.442Z,8.02
2019-03-27T18:08:49.678Z,8.02
2019-03-27T18:11:17.883Z,8.06
2019-03-27T18:13:46.100Z,8.06
2019-03-27T18:16:17.015Z,8.06
2019-03-27T18:18:44.237Z,8.03
2019-03-27T18:21:12.437Z,8.05
2019-03-27T18:23:46.208Z,8.04
2019-03-27T18:26:10.573Z,8.04
2019-03-27T18:28:38.770Z,8.04
2019-03-27T18:31:08.611Z,8.03
2019-03-27T18:33:36.812Z,8.03
2019-03-27T18:36:05.025Z,8.02
2019-03-27T18:38:34.589Z,8.01
2019-03-27T18:41:02.807Z,7.99
2019-03-27T18:43:32.400Z,7.99
2019-03-27T18:46:00.621Z,7.97
2019-03-27T18:48:28.824Z,7.94
2019-03-27T18:50:57.053Z,7.93
2019-03-27T18:53:25.220Z,7.88
2019-03-27T18:55:53.457Z,7.88
2019-03-27T18:58:21.633Z,7.92
2019-03-27T19:00:49.851Z,7.89
2019-03-27T19:03:18.060Z,7.88
2019-03-27T19:05:46.251Z,7.87
2019-03-27T19:08:16.086Z,7.87
2019-03-27T19:10:44.282Z,7.86
2019-03-27T19:13:12.493Z,7.80
2019-03-27T19:15:40.691Z,7.84
2019-03-27T19:18:08.907Z,7.83
2019-03-27T19:20:37.112Z,7.83
2019-03-27T19:23:05.328Z,7.80
2019-03-27T19:25:33.531Z,7.78
2019-03-27T19:28:01.747Z,7.78
2019-03-27T19:30:29.953Z,7.78
2019-03-27T19:32:58.162Z,7.79
2019-03-27T19:35:26.360Z,7.77
2019-03-27T19:37:54.593Z,7.76
2019-03-27T19:40:24.423Z,7.75
2019-03-27T19:42:52.633Z,7.74
2019-03-27T19:45:20.910Z,7.74
2019-03-27T19:47:49.117Z,7.75
2019-03-27T19:50:17.315Z,7.73
2019-03-27T19:52:45.537Z,7.71
2019-03-27T19:55:13.745Z,7.67
2019-03-27T19:57:43.966Z,7.67
2019-03-27T20:00:12.178Z,7.65
2019-03-27T20:02:40.381Z,7.65
2019-03-27T20:05:08.607Z,7.65
2019-03-27T20:07:36.833Z,7.65
2019-03-27T20:10:07.177Z,7.66
2019-03-27T20:16:38.101Z,7.69
2019-03-27T20:19:06.317Z,7.65
2019-03-27T20:21:34.516Z,7.64
2019-03-27T20:24:02.735Z,7.62
2019-03-27T20:26:31.500Z,7.62
2019-03-27T20:28:59.789Z,7.63
2019-03-27T20:31:27.987Z,7.64
2019-03-27T20:33:56.218Z,7.62
2019-03-27T20:36:24.430Z,7.64
2019-03-27T20:38:52.644Z,7.62
2019-03-27T20:41:20.852Z,7.57
2019-03-27T20:43:49.051Z,7.57
2019-03-27T20:46:24.844Z,7.55
2019-03-27T20:48:47.196Z,7.63
2019-03-27T20:51:15.414Z,7.62
2019-03-27T20:53:43.629Z,7.65
2019-03-27T20:56:11.841Z,7.66
2019-03-27T20:58:40.044Z,7.67
2019-03-27T21:01:08.262Z,7.68
2019-03-27T21:03:36.465Z,7.67
2019-03-27T21:06:04.678Z,7.67
2019-03-27T21:08:32.766Z,7.67
2019-03-27T21:11:00.982Z,7.67
2019-03-27T21:13:29.201Z,7.69
2019-03-27T21:15:57.401Z,7.68
2019-03-27T21:18:25.618Z,7.69
2019-03-27T21:20:53.934Z,7.70
2019-03-27T21:23:22.426Z,7.70
2019-03-27T21:25:51.068Z,7.67
2019-03-27T21:28:19.388Z,7.66
2019-03-27T21:30:47.869Z,7.70
2019-03-27T21:33:17.723Z,7.71
2019-03-27T21:35:45.928Z,7.70
2019-03-27T21:38:14.126Z,7.70
2019-03-27T21:40:42.342Z,7.70
2019-03-27T21:43:11.950Z,7.69
2019-03-27T21:45:40.278Z,7.68
2019-03-27T21:48:08.956Z,7.67
2019-03-27T21:50:37.160Z,7.69
2019-03-27T21:53:05.721Z,7.64
2019-03-27T21:55:42.706Z,7.64
2019-03-27T21:58:07.136Z,7.69
2019-03-27T22:00:41.405Z,7.69
2019-03-27T22:03:09.919Z,7.69
2019-03-27T22:05:38.266Z,7.67
2019-03-27T22:08:06.471Z,7.69
2019-03-27T22:10:34.834Z,7.70
2019-03-27T22:13:03.365Z,7.69
2019-03-27T22:15:31.796Z,7.68
2019-03-27T22:18:00.253Z,7.66
2019-03-27T22:20:28.465Z,7.66
2019-03-27T22:22:56.721Z,7.64
2019-03-27T22:25:35.457Z,7.64
2019-03-27T22:27:55.218Z,7.65
2019-03-27T22:30:23.722Z,7.65
2019-03-27T22:32:51.930Z,7.65
2019-03-27T22:35:21.120Z,7.63
2019-03-27T22:37:49.666Z,7.63
2019-03-27T22:40:18.136Z,7.64
2019-03-27T22:42:46.351Z,7.64
2019-03-27T22:45:14.551Z,7.61
2019-03-27T22:47:43.090Z,7.63
2019-03-27T22:50:11.567Z,7.62
2019-03-27T22:52:39.796Z,7.64
2019-03-27T22:55:08.363Z,7.63
2019-03-27T22:57:36.584Z,7.62
2019-03-27T23:00:08.288Z,7.62
2019-03-27T23:02:37.790Z,7.59
2019-03-27T23:05:06.691Z,7.63
2019-03-27T23:07:35.023Z,7.59
2019-03-27T23:10:05.592Z,7.59
2019-03-27T23:12:34.050Z,7.63
2019-03-27T23:15:04.147Z,7.62
2019-03-27T23:17:32.371Z,7.63
2019-03-27T23:20:00.578Z,7.53
2019-03-27T23:22:28.799Z,7.61
2019-03-27T23:24:57.016Z,7.61
2019-03-27T23:27:25.679Z,7.62
2019-03-27T23:29:53.927Z,7.62
2019-03-27T23:32:22.397Z,7.63
2019-03-27T23:34:50.618Z,7.59
2019-03-27T23:37:18.840Z,7.59
2019-03-27T23:39:47.340Z,7.60
2019-03-27T23:42:16.365Z,7.61
2019-03-27T23:44:46.160Z,7.60
2019-03-27T23:47:14.375Z,7.60
2019-03-27T23:49:42.814Z,7.59
2019-03-27T23:52:11.166Z,7.59
2019-03-27T23:54:39.381Z,7.59
2019-03-27T23:57:07.572Z,7.59
2019-03-27T23:59:35.798Z,7.60
